createdAt,value
2022-08-19T00:02:01.612Z,57.50
2022-08-19T00:04:32.372Z,57.26
2022-08-19T00:07:00.929Z,57.28
2022-08-19T00:09:28.707Z,57.04
2022-08-19T00:11:56.586Z,57.52
2022-08-19T00:14:25.293Z,57.27
2022-08-19T00:16:55.695Z,57.04
2022-08-19T00:19:23.497Z,56.99
2022-08-19T00:21:50.372Z,56.89
2022-08-19T00:24:18.643Z,57.19
2022-08-19T00:26:46.853Z,56.89
2022-08-19T00:29:16.867Z,57.01
2022-08-19T00:31:44.613Z,56.71
2022-08-19T00:34:12.979Z,56.81
2022-08-19T00:36:40.360Z,56.74
2022-08-19T00:39:07.768Z,56.94
2022-08-19T00:41:36.572Z,56.69
2022-08-19T00:44:04.233Z,56.52
2022-08-19T00:46:33.568Z,56.54
2022-08-19T00:49:01.118Z,56.46
2022-08-19T00:51:33.363Z,56.59
2022-08-19T00:54:02.325Z,56.51
2022-08-19T00:56:29.226Z,56.55
2022-08-19T00:58:59.460Z,56.60
2022-08-19T01:01:27.109Z,56.59
2022-08-19T01:03:58.184Z,56.64
2022-08-19T01:06:26.340Z,56.46
2022-08-19T01:08:53.344Z,56.75
2022-08-19T01:11:20.150Z,56.75
2022-08-19T01:13:49.838Z,56.81
2022-08-19T01:16:21.698Z,56.91
2022-08-19T01:18:48.862Z,56.90
2022-08-19T01:21:21.939Z,57.34
2022-08-19T01:23:50.273Z,57.51
2022-08-19T01:26:20.061Z,57.35
2022-08-19T01:28:49.924Z,57.93
2022-08-19T01:31:26.863Z,57.52
2022-08-19T01:33:57.084Z,57.63
2022-08-19T01:36:27.428Z,57.81
2022-08-19T01:38:56.777Z,57.55
2022-08-19T01:41:24.678Z,57.92
2022-08-19T01:44:03.856Z,57.93
2022-08-19T01:46:40.193Z,58.22
2022-08-19T01:49:08.374Z,57.87
2022-08-19T01:51:38.541Z,58.09
2022-08-19T01:54:08.813Z,58.37
2022-08-19T01:56:36.285Z,58.21
2022-08-19T01:59:06.247Z,57.75
2022-08-19T02:01:33.587Z,57.72
2022-08-19T02:04:01.779Z,57.63
2022-08-19T02:06:28.956Z,57.56
2022-08-19T02:08:57.341Z,57.60
2022-08-19T02:11:28.551Z,57.39
2022-08-19T02:13:56.085Z,57.55
2022-08-19T02:16:23.381Z,57.49
2022-08-19T02:18:51.178Z,57.53
2022-08-19T02:21:19.842Z,57.49
2022-08-19T02:23:46.753Z,57.51
2022-08-19T02:26:14.448Z,57.69
2022-08-19T02:28:43.626Z,57.52
2022-08-19T02:31:11.334Z,57.66
2022-08-19T02:33:38.055Z,57.47
2022-08-19T02:36:05.434Z,57.54
2022-08-19T02:38:32.276Z,57.59
2022-08-19T02:41:01.459Z,57.32
2022-08-19T02:43:33.743Z,57.19
2022-08-19T02:46:02.981Z,57.23
2022-08-19T02:48:29.941Z,57.15
2022-08-19T02:50:56.947Z,56.96
2022-08-19T02:53:25.421Z,56.67
2022-08-19T02:55:52.649Z,56.75
2022-08-19T02:58:20.606Z,56.63
2022-08-19T03:00:50.421Z,56.56
2022-08-19T03:03:19.488Z,56.64
2022-08-19T03:05:48.273Z,56.81
2022-08-19T03:08:23.127Z,56.85
2022-08-19T03:10:49.769Z,56.77
2022-08-19T03:13:19.151Z,57.08
2022-08-19T03:15:48.397Z,57.17
2022-08-19T03:21:04.253Z,57.54
2022-08-19T03:23:31.044Z,57.59
2022-08-19T03:26:15.550Z,57.77
2022-08-19T03:28:49.437Z,57.91
2022-08-19T03:31:45.110Z,57.79
2022-08-19T03:34:12.615Z,58.02
2022-08-19T03:36:41.989Z,58.12
2022-08-19T03:39:10.193Z,58.41
2022-08-19T03:41:44.405Z,58.54
2022-08-19T03:44:17.646Z,58.46
2022-08-19T03:46:45.077Z,58.29
2022-08-19T03:49:11.807Z,58.20
2022-08-19T03:51:43.887Z,58.15
2022-08-19T03:54:13.742Z,58.19
2022-08-19T03:56:42.163Z,58.16
2022-08-19T03:59:11.744Z,58.08
2022-08-19T04:01:38.603Z,58.01
2022-08-19T04:04:05.850Z,58.11
2022-08-19T04:06:36.387Z,58.06
2022-08-19T04:09:09.932Z,58.35
2022-08-19T04:11:43.007Z,58.26
2022-08-19T04:14:12.934Z,58.43
2022-08-19T04:16:39.694Z,58.36
2022-08-19T04:19:07.555Z,58.36
2022-08-19T04:21:34.661Z,58.32
2022-08-19T04:24:01.459Z,58.52
2022-08-19T04:29:31.576Z,59.25
2022-08-19T04:31:59.688Z,59.22
2022-08-19T04:34:29.302Z,59.30
2022-08-19T04:36:58.113Z,59.29
2022-08-19T04:39:49.910Z,59.45
2022-08-19T04:42:35.975Z,59.17
2022-08-19T04:45:05.378Z,58.96
2022-08-19T04:47:47.591Z,59.26
2022-08-19T04:50:23.562Z,59.04
2022-08-19T04:52:52.076Z,58.94
2022-08-19T04:55:19.219Z,58.95
2022-08-19T04:57:45.943Z,58.94
2022-08-19T05:00:15.081Z,59.17
2022-08-19T05:02:41.888Z,59.13
2022-08-19T05:05:09.378Z,58.77
2022-08-19T05:07:36.582Z,59.10
2022-08-19T05:10:04.009Z,58.97
2022-08-19T05:12:30.802Z,58.75
2022-08-19T05:14:58.676Z,58.67
2022-08-19T05:17:31.008Z,58.49
2022-08-19T05:20:18.834Z,58.17
2022-08-19T05:22:48.242Z,58.32
2022-08-19T05:25:20.112Z,58.51
2022-08-19T05:27:48.135Z,58.46
2022-08-19T05:30:15.417Z,58.15
2022-08-19T05:32:44.003Z,57.90
2022-08-19T05:35:11.676Z,57.91
2022-08-19T05:37:40.981Z,57.61
2022-08-19T05:40:09.020Z,57.72
2022-08-19T05:42:36.128Z,57.52
2022-08-19T05:45:03.707Z,57.56
2022-08-19T05:47:30.443Z,57.40
2022-08-19T05:49:58.525Z,57.33
2022-08-19T05:52:26.087Z,57.34
2022-08-19T05:54:55.827Z,57.70
2022-08-19T05:57:23.759Z,58.07
2022-08-19T05:59:53.204Z,58.74
2022-08-19T06:02:25.926Z,58.43
2022-08-19T06:04:52.954Z,58.21
2022-08-19T06:07:21.101Z,57.90
2022-08-19T06:09:58.878Z,57.87
2022-08-19T06:12:31.611Z,57.48
2022-08-19T06:15:00.796Z,57.57
2022-08-19T06:17:28.482Z,57.55
2022-08-19T06:19:55.240Z,57.31
2022-08-19T06:22:23.792Z,57.15
2022-08-19T06:24:53.651Z,57.21
2022-08-19T06:27:21.246Z,57.08
2022-08-19T06:29:48.134Z,56.84
2022-08-19T06:32:17.345Z,56.82
2022-08-19T06:34:44.159Z,56.55
2022-08-19T06:37:12.767Z,56.53
2022-08-19T06:39:43.519Z,56.58
2022-08-19T06:42:14.089Z,56.43
2022-08-19T06:44:43.507Z,56.28
2022-08-19T06:47:23.072Z,55.99
2022-08-19T06:49:53.831Z,55.69
2022-08-19T06:52:20.915Z,55.45
2022-08-19T06:54:56.031Z,55.47
2022-08-19T06:57:23.848Z,55.41
2022-08-19T06:59:50.727Z,56.03
2022-08-19T07:04:44.995Z,55.58
2022-08-19T07:07:19.963Z,55.71
2022-08-19T07:09:59.325Z,55.50
2022-08-19T07:12:29.639Z,56.02
2022-08-19T07:14:58.357Z,55.72
2022-08-19T07:17:25.349Z,55.63
2022-08-19T07:19:54.334Z,55.64
2022-08-19T07:22:24.232Z,55.84
2022-08-19T07:24:53.545Z,55.95
2022-08-19T07:27:24.706Z,55.95
2022-08-19T07:29:55.719Z,56.04
2022-08-19T07:32:23.322Z,55.79
2022-08-19T07:34:50.042Z,56.04
2022-08-19T07:37:17.238Z,55.73
2022-08-19T07:39:44.141Z,55.64
2022-08-19T07:42:13.330Z,56.39
2022-08-19T07:47:48.157Z,57.11
2022-08-19T07:50:00.888Z,56.75
2022-08-19T07:52:27.626Z,57.17
2022-08-19T07:54:54.263Z,57.86
2022-08-19T07:57:22.480Z,58.05
2022-08-19T07:59:49.122Z,57.87
2022-08-19T08:02:15.782Z,57.18
2022-08-19T08:05:01.288Z,57.33
2022-08-19T08:07:46.676Z,57.72
2022-08-19T08:10:21.343Z,57.41
2022-08-19T08:13:08.962Z,57.38
2022-08-19T08:15:42.168Z,57.00
2022-08-19T08:18:10.259Z,56.87
2022-08-19T08:20:36.920Z,56.47
2022-08-19T08:23:22.425Z,56.80
2022-08-19T08:25:49.887Z,56.99
2022-08-19T08:28:18.704Z,56.60
2022-08-19T08:30:49.005Z,56.27
2022-08-19T08:33:20.121Z,56.75
2022-08-19T08:36:01.425Z,56.86
2022-08-19T08:38:38.428Z,56.64
2022-08-19T08:41:15.171Z,56.35
2022-08-19T08:43:47.615Z,55.91
2022-08-19T08:46:30.983Z,55.72
2022-08-19T08:49:06.689Z,55.79
2022-08-19T08:51:38.075Z,56.09
2022-08-19T08:54:09.759Z,55.65
2022-08-19T08:56:39.146Z,55.68
2022-08-19T08:59:11.417Z,55.43
2022-08-19T09:01:39.311Z,55.44
2022-08-19T09:04:07.849Z,55.75
2022-08-19T09:06:40.584Z,55.60
2022-08-19T09:09:16.109Z,55.55
2022-08-19T09:11:57.617Z,55.31
2022-08-19T09:14:51.093Z,55.07
2022-08-19T09:17:19.528Z,55.17
2022-08-19T09:19:55.695Z,55.17
2022-08-19T09:22:25.316Z,55.77
2022-08-19T09:24:54.100Z,55.39
2022-08-19T09:27:21.838Z,55.61
2022-08-19T09:29:50.138Z,55.33
2022-08-19T09:32:26.910Z,55.17
2022-08-19T09:34:59.042Z,55.04
2022-08-19T09:37:26.009Z,55.94
2022-08-19T09:39:53.546Z,55.52
2022-08-19T09:42:29.904Z,55.41
2022-08-19T09:45:00.059Z,56.14
2022-08-19T09:47:27.290Z,56.38
2022-08-19T09:49:54.055Z,56.54
2022-08-19T09:52:20.934Z,56.02
2022-08-19T09:54:51.828Z,56.42
2022-08-19T09:57:18.835Z,56.38
2022-08-19T10:00:11.274Z,57.02
2022-08-19T10:02:40.333Z,56.71
2022-08-19T10:05:31.120Z,56.79
2022-08-19T10:07:58.422Z,56.13
2022-08-19T10:10:25.109Z,56.23
2022-08-19T10:12:52.738Z,56.13
2022-08-19T10:15:29.150Z,55.77
2022-08-19T10:17:59.792Z,55.47
2022-08-19T10:20:28.503Z,55.23
2022-08-19T10:22:55.543Z,55.83
2022-08-19T10:25:22.240Z,55.49
2022-08-19T10:27:51.338Z,55.32
2022-08-19T10:30:18.904Z,54.67
2022-08-19T10:32:47.327Z,55.49
2022-08-19T10:35:16.272Z,54.63
2022-08-19T10:37:56.852Z,55.53
2022-08-19T10:40:24.750Z,54.52
2022-08-19T10:42:52.390Z,55.06
2022-08-19T10:45:19.515Z,54.87
2022-08-19T10:47:47.896Z,54.42
2022-08-19T10:50:34.977Z,54.39
2022-08-19T10:53:08.055Z,54.24
2022-08-19T10:55:55.155Z,54.37
2022-08-19T10:58:24.538Z,54.35
2022-08-19T11:00:54.061Z,54.19
2022-08-19T11:03:24.264Z,53.64
2022-08-19T11:06:01.097Z,54.49
2022-08-19T11:08:27.899Z,54.77
2022-08-19T11:11:01.751Z,54.38
2022-08-19T11:13:28.574Z,53.47
2022-08-19T11:16:05.100Z,53.08
2022-08-19T11:18:35.012Z,53.67
2022-08-19T11:21:19.995Z,53.98
2022-08-19T11:23:48.394Z,53.47
2022-08-19T11:26:15.600Z,53.16
2022-08-19T11:28:42.750Z,52.56
2022-08-19T11:31:13.929Z,53.25
2022-08-19T11:33:40.802Z,52.64
2022-08-19T11:36:12.727Z,52.38
2022-08-19T11:38:43.636Z,52.40
2022-08-19T11:41:10.605Z,52.83
2022-08-19T11:43:38.520Z,52.73
2022-08-19T11:46:07.722Z,52.47
2022-08-19T11:48:35.441Z,52.35
2022-08-19T11:51:07.229Z,52.41
2022-08-19T11:53:35.075Z,52.35
2022-08-19T11:56:04.200Z,52.28
2022-08-19T11:58:31.516Z,51.97
2022-08-19T12:00:58.669Z,52.64
2022-08-19T12:03:25.444Z,52.62
2022-08-19T12:05:52.623Z,52.14
2022-08-19T12:08:19.835Z,52.14
2022-08-19T12:10:46.537Z,52.03
2022-08-19T12:13:19.499Z,51.72
2022-08-19T12:15:48.367Z,51.85
2022-08-19T12:18:15.201Z,51.39
2022-08-19T12:20:44.253Z,51.59
2022-08-19T12:23:11.570Z,51.62
2022-08-19T12:25:39.044Z,51.40
2022-08-19T12:28:05.703Z,51.77
2022-08-19T12:30:33.707Z,51.81
2022-08-19T12:33:00.388Z,52.27
2022-08-19T12:35:27.119Z,51.83
2022-08-19T12:37:57.343Z,52.17
2022-08-19T12:40:26.422Z,52.29
2022-08-19T12:42:53.498Z,52.71
2022-08-19T12:45:20.180Z,52.88
2022-08-19T12:47:49.744Z,53.36
2022-08-19T12:50:16.865Z,53.44
2022-08-19T12:52:43.640Z,53.59
2022-08-19T12:55:11.526Z,53.62
2022-08-19T12:57:38.886Z,53.92
2022-08-19T13:00:14.856Z,54.15
2022-08-19T13:02:45.135Z,54.41
2022-08-19T13:05:16.836Z,54.73
2022-08-19T13:07:47.137Z,54.99
2022-08-19T13:10:17.075Z,55.33
2022-08-19T13:12:44.289Z,55.44
2022-08-19T13:15:12.314Z,55.67
2022-08-19T13:17:40.135Z,55.74
2022-08-19T13:20:11.275Z,55.82
2022-08-19T13:22:39.940Z,55.75
2022-08-19T13:25:09.008Z,55.85
2022-08-19T13:27:36.354Z,55.74
2022-08-19T13:30:37.005Z,55.79
2022-08-19T13:33:12.596Z,56.05
2022-08-19T13:35:40.801Z,55.89
2022-08-19T13:38:11.789Z,55.93
2022-08-19T13:40:39.428Z,55.62
2022-08-19T13:43:12.371Z,55.57
2022-08-19T13:45:50.043Z,55.82
2022-08-19T13:48:17.488Z,55.34
2022-08-19T13:50:47.944Z,55.95
2022-08-19T13:53:17.322Z,56.22
2022-08-19T13:55:44.563Z,56.02
2022-08-19T13:58:12.179Z,55.84
2022-08-19T14:00:41.875Z,55.83
2022-08-19T14:03:09.382Z,55.75
2022-08-19T14:05:37.243Z,55.76
2022-08-19T14:08:04.445Z,55.65
2022-08-19T14:10:32.967Z,55.51
2022-08-19T14:13:02.446Z,55.65
2022-08-19T14:15:29.749Z,55.79
2022-08-19T14:17:57.443Z,56.17
2022-08-19T14:20:25.944Z,56.08
2022-08-19T14:22:55.596Z,56.41
2022-08-19T14:25:24.882Z,56.59
2022-08-19T14:27:53.509Z,57.02
2022-08-19T14:30:23.735Z,56.86
2022-08-19T14:32:50.545Z,57.01
2022-08-19T14:35:18.131Z,57.04
2022-08-19T14:37:48.422Z,57.06
2022-08-19T14:40:17.286Z,57.83
2022-08-19T14:42:44.978Z,57.73
2022-08-19T14:45:14.472Z,57.60
2022-08-19T15:04:25.413Z,56.89
2022-08-19T16:00:52.800Z,57.04
2022-08-19T16:09:06.651Z,57.25
2022-08-19T16:14:19.103Z,57.38
2022-08-19T16:19:33.350Z,56.42
2022-08-19T16:22:00.228Z,56.04
2022-08-19T16:27:17.465Z,56.11
2022-08-19T16:29:44.842Z,56.14
2022-08-19T16:32:12.180Z,56.32
2022-08-19T16:34:41.499Z,56.21
2022-08-19T16:37:08.683Z,56.27
2022-08-19T16:39:36.243Z,56.26
2022-08-19T16:42:03.822Z,56.14
2022-08-19T16:44:34.596Z,56.07
2022-08-19T16:47:01.345Z,56.07
2022-08-19T16:49:53.975Z,55.99
2022-08-19T16:52:17.999Z,56.02
2022-08-19T16:54:45.000Z,56.29
2022-08-19T16:59:53.417Z,56.15
2022-08-19T17:02:22.687Z,56.39
2022-08-19T17:04:57.591Z,56.41
2022-08-19T17:07:27.395Z,56.17
2022-08-19T17:09:54.137Z,56.29
2022-08-19T17:12:22.077Z,56.19
2022-08-19T17:14:49.141Z,56.49
2022-08-19T17:17:15.979Z,56.47
2022-08-19T17:19:44.571Z,56.27
2022-08-19T17:22:12.981Z,56.36
2022-08-19T17:24:41.633Z,56.28
2022-08-19T17:27:09.007Z,56.32
2022-08-19T17:29:35.851Z,56.29
2022-08-19T17:32:03.200Z,56.16
2022-08-19T17:34:30.388Z,56.59
2022-08-19T17:36:57.582Z,56.99
2022-08-19T17:39:25.311Z,57.20
2022-08-19T17:41:53.594Z,57.56
2022-08-19T17:44:22.486Z,58.37
2022-08-19T17:46:49.142Z,57.94
2022-08-19T17:49:16.813Z,58.13
2022-08-19T17:51:46.877Z,58.11
2022-08-19T17:54:15.549Z,58.64
2022-08-19T17:56:42.573Z,58.77
2022-08-19T17:59:14.159Z,58.85
2022-08-19T18:01:53.652Z,58.96
2022-08-19T18:04:21.303Z,59.13
2022-08-19T18:06:53.368Z,59.30
2022-08-19T18:09:23.950Z,59.26
2022-08-19T18:11:53.031Z,59.13
2022-08-19T18:14:23.033Z,59.21
2022-08-19T18:16:50.469Z,59.33
2022-08-19T18:19:17.865Z,59.37
2022-08-19T18:21:44.517Z,59.73
2022-08-19T18:24:12.627Z,59.72
2022-08-19T18:26:41.955Z,60.03
2022-08-19T18:29:09.476Z,59.96
2022-08-19T18:31:38.797Z,60.05
2022-08-19T18:34:05.746Z,60.00
2022-08-19T18:36:53.056Z,59.83
2022-08-19T18:39:38.809Z,59.73
2022-08-19T18:42:24.979Z,59.95
2022-08-19T18:45:10.194Z,59.73
2022-08-19T18:47:56.956Z,59.93
2022-08-19T18:50:23.733Z,59.63
2022-08-19T18:52:50.775Z,60.06
2022-08-19T18:55:18.581Z,60.12
2022-08-19T18:57:45.704Z,59.80
2022-08-19T19:00:13.674Z,59.84
2022-08-19T19:02:41.731Z,59.93
2022-08-19T19:05:08.506Z,59.82
2022-08-19T19:07:35.325Z,59.62
2022-08-19T19:10:02.045Z,59.29
2022-08-19T19:12:29.616Z,59.23
2022-08-19T19:14:58.458Z,59.21
2022-08-19T19:17:28.342Z,59.10
2022-08-19T19:19:56.512Z,59.10
2022-08-19T19:22:23.927Z,59.06
2022-08-19T19:27:57.284Z,59.00
2022-08-19T21:00:59.700Z,58.79
2022-08-19T21:03:29.436Z,59.11
2022-08-19T21:05:56.830Z,59.06
2022-08-19T21:08:24.898Z,59.24
2022-08-19T21:10:52.645Z,59.40
2022-08-19T21:13:20.948Z,59.30
2022-08-19T21:15:48.273Z,59.16
2022-08-19T21:18:18.780Z,59.17
2022-08-19T21:20:46.161Z,59.19
2022-08-19T21:23:15.553Z,59.02
2022-08-19T21:25:43.563Z,58.83
2022-08-19T21:28:34.432Z,59.16
2022-08-19T21:31:05.325Z,59.03
2022-08-19T21:33:33.643Z,58.92
2022-08-19T21:36:00.487Z,58.83
2022-08-19T21:38:27.637Z,58.94
2022-08-19T21:40:54.672Z,58.97
2022-08-19T21:43:22.125Z,59.06
2022-08-19T21:45:51.108Z,58.87
2022-08-19T21:48:18.273Z,58.66
2022-08-19T21:50:48.459Z,58.49
2022-08-19T21:53:17.434Z,58.92
2022-08-19T21:58:41.248Z,58.68
2022-08-19T22:01:08.253Z,58.59
2022-08-19T22:03:36.578Z,59.00
2022-08-19T22:06:04.908Z,58.76
2022-08-19T22:08:31.689Z,59.57
2022-08-19T22:11:01.776Z,59.06
2022-08-19T22:13:30.466Z,59.51
2022-08-19T22:15:57.183Z,59.69
2022-08-19T22:18:24.547Z,59.80
2022-08-19T22:20:51.325Z,59.61
2022-08-19T22:23:19.410Z,59.28
2022-08-19T22:25:47.150Z,59.58
2022-08-19T22:28:19.064Z,59.84
2022-08-19T22:30:55.970Z,59.46
2022-08-19T22:33:24.156Z,58.98
2022-08-19T22:35:52.717Z,59.11
2022-08-19T22:38:20.715Z,58.94
2022-08-19T22:40:49.291Z,58.89
2022-08-19T22:43:17.894Z,58.78
2022-08-19T22:45:45.681Z,58.59
2022-08-19T22:48:14.928Z,58.82
2022-08-19T22:50:43.591Z,58.94
2022-08-19T22:53:10.803Z,59.03
2022-08-19T22:55:39.288Z,59.22
2022-08-19T22:58:06.230Z,59.50
2022-08-19T23:00:34.089Z,59.18
2022-08-19T23:03:02.236Z,59.26
2022-08-19T23:05:29.591Z,59.23
2022-08-19T23:07:58.089Z,59.45
2022-08-19T23:10:27.660Z,59.35
2022-08-19T23:12:58.810Z,59.02
2022-08-19T23:15:28.606Z,59.21
2022-08-19T23:17:58.094Z,59.06
2022-08-19T23:20:27.101Z,59.30
2022-08-19T23:22:54.815Z,59.64
2022-08-19T23:25:25.078Z,59.77
2022-08-19T23:28:10.309Z,59.96
2022-08-19T23:30:42.511Z,59.79
2022-08-19T23:33:15.031Z,59.39
2022-08-19T23:35:41.783Z,59.52
2022-08-19T23:38:09.552Z,59.64
2022-08-19T23:40:38.799Z,59.62
2022-08-19T23:43:07.952Z,59.57
2022-08-19T23:45:39.438Z,59.79
2022-08-19T23:48:06.303Z,59.80
2022-08-19T23:50:33.870Z,59.78
2022-08-19T23:53:01.557Z,59.63
2022-08-19T23:55:30.401Z,59.58
2022-08-19T23:57:57.941Z,59.92
